createdAt,value
2017-07-19T05:31:24.072Z,115
2017-07-19T05:31:49.542Z,115
2017-07-19T05:32:15.029Z,120
2017-07-19T05:32:40.499Z,120
2017-07-19T05:33:05.995Z,120
2017-07-19T05:33:31.473Z,115
2017-07-19T05:33:56.951Z,115
2017-07-19T05:34:22.472Z,120
2017-07-19T05:34:47.918Z,125
2017-07-19T05:35:13.386Z,125
2017-07-19T05:35:38.868Z,130
2017-07-19T05:36:04.337Z,130
2017-07-19T05:36:29.802Z,130
2017-07-19T05:36:55.294Z,130
2017-07-19T05:37:20.764Z,130
2017-07-19T05:37:46.219Z,130
2017-07-19T05:38:11.677Z,130
2017-07-19T05:38:37.163Z,130
2017-07-19T05:39:02.610Z,130
2017-07-19T05:39:28.097Z,130
2017-07-19T05:39:53.574Z,125
2017-07-19T05:40:19.059Z,125
2017-07-19T05:40:44.534Z,125
2017-07-19T05:41:10.002Z,125
2017-07-19T05:41:35.471Z,120
2017-07-19T05:42:00.944Z,120
2017-07-19T05:42:26.424Z,120
2017-07-19T05:42:51.920Z,120
2017-07-19T05:43:17.390Z,120
2017-07-19T05:43:42.881Z,120
2017-07-19T05:44:08.367Z,110
2017-07-19T05:44:33.853Z,105
2017-07-19T05:44:59.331Z,105
2017-07-19T05:45:24.827Z,110
2017-07-19T05:45:50.302Z,110
2017-07-19T05:46:15.766Z,115
2017-07-19T05:46:41.228Z,115
2017-07-19T05:47:06.696Z,115
2017-07-19T05:47:32.164Z,115
2017-07-19T05:47:57.632Z,120
2017-07-19T05:48:23.091Z,120
2017-07-19T05:48:48.574Z,120
2017-07-19T05:49:14.192Z,120
2017-07-19T05:49:39.562Z,120
2017-07-19T05:50:05.057Z,120
2017-07-19T05:50:30.533Z,120
2017-07-19T05:50:56.019Z,120
2017-07-19T05:51:21.504Z,120
2017-07-19T05:51:46.992Z,120
2017-07-19T05:52:12.448Z,120
2017-07-19T05:52:37.971Z,120
2017-07-19T05:53:03.430Z,120
2017-07-19T05:53:28.922Z,120
2017-07-19T05:53:54.389Z,120
2017-07-19T05:54:19.877Z,120
2017-07-19T05:54:45.340Z,120
2017-07-19T05:55:10.834Z,120
2017-07-19T05:55:36.273Z,120
2017-07-19T05:56:01.816Z,120
2017-07-19T05:56:27.297Z,115
2017-07-19T05:56:52.746Z,115
2017-07-19T05:57:18.224Z,115
2017-07-19T05:57:43.730Z,110
2017-07-19T05:58:09.247Z,115
2017-07-19T05:58:34.748Z,115
2017-07-19T05:59:00.225Z,120
2017-07-19T05:59:25.686Z,125
2017-07-19T05:59:51.187Z,125
2017-07-19T06:00:16.657Z,125
2017-07-19T06:00:42.128Z,120
2017-07-19T06:01:07.634Z,125
2017-07-19T06:01:33.100Z,125
2017-07-19T06:01:58.600Z,130
2017-07-19T06:02:24.071Z,135
2017-07-19T06:02:49.550Z,135
2017-07-19T06:03:15.049Z,135
2017-07-19T06:03:40.537Z,135
2017-07-19T06:04:06.031Z,135
2017-07-19T06:04:31.508Z,135
2017-07-19T06:04:57.021Z,140
2017-07-19T06:05:22.487Z,145
2017-07-19T06:05:47.963Z,145
2017-07-19T06:06:13.446Z,145
2017-07-19T06:06:38.904Z,145
2017-07-19T06:07:04.407Z,150
2017-07-19T06:07:29.875Z,150
2017-07-19T06:07:55.377Z,145
2017-07-19T06:08:20.851Z,145
2017-07-19T06:08:46.310Z,150
2017-07-19T06:09:11.799Z,160
2017-07-19T06:09:37.245Z,160
2017-07-19T06:10:02.724Z,160
2017-07-19T06:10:28.196Z,155
2017-07-19T06:10:53.674Z,155
2017-07-19T06:11:19.140Z,150
2017-07-19T06:11:44.604Z,150
2017-07-19T06:12:10.086Z,150
2017-07-19T06:12:35.574Z,150
2017-07-19T06:13:01.065Z,150
2017-07-19T06:13:26.557Z,150
2017-07-19T06:13:52.053Z,150
2017-07-19T06:14:17.531Z,150
2017-07-19T06:14:43.009Z,150
2017-07-19T06:15:08.464Z,150
2017-07-19T06:15:33.929Z,155
2017-07-19T06:15:59.383Z,155
2017-07-19T06:16:24.853Z,155
2017-07-19T06:16:50.331Z,155
2017-07-19T06:17:15.800Z,155
2017-07-19T06:17:41.282Z,155
2017-07-19T06:18:06.746Z,155
2017-07-19T06:18:32.238Z,150
2017-07-19T06:18:57.733Z,155
2017-07-19T06:19:23.237Z,155
2017-07-19T06:19:48.768Z,150
2017-07-19T06:20:14.247Z,155
2017-07-19T06:20:39.717Z,150
2017-07-19T06:21:05.210Z,150
2017-07-19T06:21:30.660Z,150
2017-07-19T06:21:56.123Z,150
2017-07-19T06:22:21.578Z,150
2017-07-19T06:22:47.088Z,150
2017-07-19T06:23:12.561Z,145
2017-07-19T06:23:38.046Z,145
2017-07-19T06:24:03.496Z,145
2017-07-19T06:24:28.997Z,140
2017-07-19T06:24:54.455Z,150
2017-07-19T06:25:19.917Z,145
2017-07-19T06:25:45.423Z,145
2017-07-19T06:26:10.915Z,145
2017-07-19T06:26:36.387Z,145
2017-07-19T06:27:01.877Z,145
2017-07-19T06:27:27.365Z,150
2017-07-19T06:27:52.827Z,145
2017-07-19T06:28:18.310Z,150
2017-07-19T06:28:43.769Z,155
2017-07-19T06:29:09.243Z,155
2017-07-19T06:29:34.719Z,155
2017-07-19T06:30:00.179Z,155
2017-07-19T06:30:25.660Z,160
2017-07-19T06:30:51.121Z,160
2017-07-19T06:31:16.573Z,160
2017-07-19T06:31:42.073Z,160
2017-07-19T06:32:07.513Z,160
2017-07-19T06:32:32.979Z,165
2017-07-19T06:32:58.474Z,165
2017-07-19T06:33:23.953Z,165
2017-07-19T06:33:49.429Z,165
2017-07-19T06:34:14.907Z,165
2017-07-19T06:34:40.380Z,165
2017-07-19T06:35:05.854Z,165
2017-07-19T06:35:31.343Z,165
2017-07-19T06:35:56.803Z,165
2017-07-19T06:36:22.287Z,165
2017-07-19T06:36:47.735Z,165
2017-07-19T06:37:13.208Z,165
2017-07-19T06:37:38.664Z,165
2017-07-19T06:38:04.162Z,165
2017-07-19T06:38:29.676Z,165
2017-07-19T06:38:55.152Z,165
2017-07-19T06:39:20.626Z,165
2017-07-19T06:39:46.142Z,165
2017-07-19T06:40:11.582Z,160
2017-07-19T06:40:37.064Z,165
2017-07-19T06:41:02.547Z,165
2017-07-19T06:41:28.044Z,165
2017-07-19T06:41:53.554Z,165
2017-07-19T06:42:19.042Z,165
2017-07-19T06:42:44.496Z,160
2017-07-19T06:43:09.990Z,160
2017-07-19T06:43:35.464Z,160
2017-07-19T06:44:00.957Z,160
2017-07-19T06:44:26.443Z,160
2017-07-19T06:44:51.900Z,165
2017-07-19T06:45:17.376Z,165
2017-07-19T06:45:42.862Z,165
2017-07-19T06:46:08.320Z,165
2017-07-19T06:46:33.798Z,165
2017-07-19T06:46:59.274Z,165
2017-07-19T06:47:24.761Z,165
2017-07-19T06:47:50.248Z,165
2017-07-19T06:48:15.703Z,165
2017-07-19T06:48:41.162Z,165
2017-07-19T06:49:06.642Z,170
2017-07-19T06:49:32.130Z,170
2017-07-19T06:49:57.616Z,170
2017-07-19T06:50:23.080Z,170
2017-07-19T06:50:48.569Z,170
2017-07-19T06:51:14.075Z,170
2017-07-19T06:51:39.557Z,170
2017-07-19T06:52:05.039Z,170
2017-07-19T06:52:30.508Z,170
2017-07-19T06:52:55.998Z,170
2017-07-19T06:53:21.467Z,170
2017-07-19T06:53:46.963Z,170
2017-07-19T06:54:12.455Z,170
2017-07-19T06:54:37.936Z,170
2017-07-19T06:55:03.435Z,170
2017-07-19T06:55:28.922Z,170
2017-07-19T06:55:54.379Z,170
2017-07-19T06:56:19.847Z,175
2017-07-19T06:56:45.310Z,175
2017-07-19T06:57:10.776Z,175
2017-07-19T06:57:36.235Z,175
2017-07-19T06:58:01.711Z,175
2017-07-19T06:58:27.159Z,175
2017-07-19T06:58:52.630Z,175
2017-07-19T06:59:18.071Z,180
2017-07-19T06:59:43.533Z,180
2017-07-19T07:00:09.015Z,185
2017-07-19T07:00:34.515Z,180
2017-07-19T07:01:00.004Z,180
2017-07-19T07:01:25.475Z,180
2017-07-19T07:01:50.945Z,180
2017-07-19T07:02:16.411Z,180
2017-07-19T07:02:41.894Z,180
2017-07-19T07:03:07.420Z,180
2017-07-19T07:03:32.906Z,180
2017-07-19T07:03:58.353Z,180
2017-07-19T07:04:23.840Z,180
2017-07-19T07:04:49.320Z,185
2017-07-19T07:05:14.813Z,180
2017-07-19T07:05:40.293Z,180
2017-07-19T07:06:05.786Z,180
2017-07-19T07:06:31.243Z,180
2017-07-19T07:06:56.714Z,180
2017-07-19T07:07:22.210Z,180
2017-07-19T07:07:47.719Z,180
2017-07-19T07:08:13.182Z,180
2017-07-19T07:08:38.651Z,180
2017-07-19T07:09:04.074Z,180
2017-07-19T07:09:29.560Z,180
2017-07-19T07:09:55.032Z,180
2017-07-19T07:10:20.521Z,180
2017-07-19T07:10:45.986Z,180
2017-07-19T07:11:11.489Z,185
2017-07-19T07:11:36.957Z,185
2017-07-19T07:12:02.482Z,180
2017-07-19T07:12:27.939Z,180
2017-07-19T07:12:53.419Z,180
2017-07-19T07:13:18.902Z,185
2017-07-19T07:13:44.358Z,185
2017-07-19T07:14:09.827Z,180
2017-07-19T07:14:35.308Z,185
2017-07-19T07:15:00.816Z,180
2017-07-19T07:15:26.303Z,185
2017-07-19T07:15:51.759Z,185
2017-07-19T07:16:17.251Z,180
2017-07-19T07:16:42.704Z,180
2017-07-19T07:17:08.197Z,180
2017-07-19T07:17:33.706Z,180
2017-07-19T07:17:59.135Z,180
2017-07-19T07:18:24.688Z,185
2017-07-19T07:18:50.181Z,180
2017-07-19T07:19:15.684Z,180
2017-07-19T07:19:41.175Z,185
2017-07-19T07:20:06.668Z,185
2017-07-19T07:20:32.166Z,180
2017-07-19T07:20:57.671Z,180
2017-07-19T07:21:23.147Z,185
2017-07-19T07:21:48.636Z,185
2017-07-19T07:22:14.115Z,185
2017-07-19T07:22:39.586Z,180
2017-07-19T07:23:05.059Z,185
2017-07-19T07:23:30.557Z,185
2017-07-19T07:23:56.043Z,180
2017-07-19T07:24:21.521Z,185
2017-07-19T07:24:46.997Z,185
2017-07-19T07:25:12.463Z,185
2017-07-19T07:25:37.954Z,185
2017-07-19T07:26:03.421Z,185
2017-07-19T07:26:28.890Z,185
2017-07-19T07:26:54.346Z,185
2017-07-19T07:27:19.845Z,180
2017-07-19T07:27:45.309Z,180
2017-07-19T07:28:10.812Z,180
2017-07-19T07:28:36.237Z,185
2017-07-19T07:29:01.711Z,180
2017-07-19T07:29:27.201Z,185
2017-07-19T07:29:52.693Z,180
2017-07-19T07:30:18.154Z,180
2017-07-19T07:30:43.627Z,185
2017-07-19T07:31:09.105Z,185
2017-07-19T07:31:34.563Z,180
2017-07-19T07:32:00.007Z,185
2017-07-19T07:32:25.462Z,185
2017-07-19T07:32:50.938Z,185
2017-07-19T07:33:16.424Z,185
2017-07-19T07:33:41.865Z,185
2017-07-19T07:34:07.329Z,185
2017-07-19T07:34:32.806Z,185
2017-07-19T07:34:58.257Z,185
2017-07-19T07:35:23.723Z,185
2017-07-19T07:35:49.180Z,185
2017-07-19T07:36:14.683Z,185
2017-07-19T07:36:40.144Z,185
2017-07-19T07:37:05.644Z,190
2017-07-19T07:37:31.122Z,190
2017-07-19T07:37:56.589Z,185
2017-07-19T07:38:22.063Z,185
2017-07-19T07:38:47.512Z,185
2017-07-19T07:39:12.955Z,185
2017-07-19T07:39:38.438Z,185
2017-07-19T07:40:03.922Z,185
2017-07-19T07:40:29.368Z,185
2017-07-19T07:40:54.841Z,185
2017-07-19T07:41:20.304Z,185
2017-07-19T07:41:45.758Z,185
2017-07-19T07:42:11.230Z,185
2017-07-19T07:42:36.698Z,185
2017-07-19T07:43:02.188Z,185
2017-07-19T07:43:27.654Z,185
2017-07-19T07:43:53.139Z,190
2017-07-19T07:44:18.636Z,190
2017-07-19T07:44:44.097Z,185
2017-07-19T07:45:09.553Z,190
2017-07-19T07:45:35.032Z,190
2017-07-19T07:46:00.491Z,185
2017-07-19T07:46:25.966Z,190
2017-07-19T07:46:51.452Z,190
2017-07-19T07:47:16.924Z,190
2017-07-19T07:47:42.391Z,190
2017-07-19T07:48:07.864Z,195
2017-07-19T07:48:33.345Z,195
2017-07-19T07:48:58.809Z,195
2017-07-19T07:49:24.298Z,200
2017-07-19T07:49:49.762Z,200
2017-07-19T07:50:15.279Z,200
2017-07-19T07:50:40.746Z,205
2017-07-19T07:51:06.213Z,200
2017-07-19T07:51:31.710Z,200
2017-07-19T07:51:57.165Z,200
2017-07-19T07:52:22.644Z,205
2017-07-19T07:52:48.158Z,210
2017-07-19T07:53:13.637Z,210
2017-07-19T07:53:39.107Z,210
2017-07-19T07:54:04.602Z,205
2017-07-19T07:54:30.056Z,205
2017-07-19T07:54:55.490Z,205
2017-07-19T07:55:20.958Z,205
2017-07-19T07:55:46.436Z,200
2017-07-19T07:56:11.940Z,200
2017-07-19T07:56:37.435Z,200
2017-07-19T07:57:02.900Z,195
2017-07-19T07:57:28.373Z,195
2017-07-19T07:57:53.855Z,195
2017-07-19T07:58:19.338Z,190
2017-07-19T07:58:44.821Z,195
2017-07-19T07:59:10.302Z,195
2017-07-19T07:59:35.776Z,195
2017-07-19T08:00:01.267Z,195
2017-07-19T08:00:26.712Z,190
2017-07-19T08:00:52.224Z,190
2017-07-19T08:01:17.680Z,190
2017-07-19T08:01:43.175Z,195
2017-07-19T08:02:08.637Z,195
2017-07-19T08:02:34.146Z,190
2017-07-19T08:02:59.666Z,190
2017-07-19T08:03:25.132Z,190
2017-07-19T08:03:50.590Z,185
2017-07-19T08:04:16.078Z,190
2017-07-19T08:04:41.530Z,185
2017-07-19T08:05:06.988Z,185
2017-07-19T08:05:32.459Z,185
2017-07-19T08:05:57.925Z,190
2017-07-19T08:06:23.402Z,190
2017-07-19T08:06:48.853Z,190
2017-07-19T08:07:14.327Z,190
2017-07-19T08:07:39.774Z,190
2017-07-19T08:08:05.268Z,190
2017-07-19T08:08:30.730Z,190
2017-07-19T08:08:56.195Z,190
2017-07-19T08:09:21.653Z,190
2017-07-19T08:09:47.102Z,185
2017-07-19T08:10:12.576Z,185
2017-07-19T08:10:38.038Z,190
2017-07-19T08:11:03.509Z,190
2017-07-19T08:11:29.006Z,190
2017-07-19T08:11:54.508Z,190
2017-07-19T08:12:19.995Z,195
2017-07-19T08:12:45.460Z,195
2017-07-19T08:13:10.919Z,200
2017-07-19T08:13:36.410Z,200
2017-07-19T08:14:01.892Z,200
2017-07-19T08:14:27.371Z,200
2017-07-19T08:14:52.825Z,200
2017-07-19T08:15:18.316Z,200
2017-07-19T08:15:43.794Z,200
2017-07-19T08:16:09.252Z,205
2017-07-19T08:16:34.717Z,205
2017-07-19T08:17:00.187Z,205
2017-07-19T08:17:25.669Z,210
2017-07-19T08:17:51.180Z,215
2017-07-19T08:18:16.624Z,215
2017-07-19T08:18:42.118Z,220
2017-07-19T08:20:00.492Z,225
2017-07-19T08:20:25.952Z,225
2017-07-19T08:20:51.432Z,230
2017-07-19T08:21:16.923Z,230
2017-07-19T08:21:42.393Z,230
2017-07-19T08:22:07.895Z,235
2017-07-19T08:22:33.358Z,235
2017-07-19T08:22:58.867Z,235
2017-07-19T08:23:24.328Z,240
2017-07-19T08:23:49.809Z,240
2017-07-19T08:24:15.286Z,240
2017-07-19T08:24:40.755Z,240
2017-07-19T08:25:06.255Z,240
2017-07-19T08:25:31.707Z,235
2017-07-19T08:25:57.179Z,235
2017-07-19T08:26:22.639Z,245
2017-07-19T08:26:48.111Z,240
2017-07-19T08:27:13.583Z,240
2017-07-19T08:27:39.041Z,240
2017-07-19T08:28:04.509Z,235
2017-07-19T08:28:29.997Z,235
2017-07-19T08:28:55.430Z,235
2017-07-19T08:29:20.880Z,230
2017-07-19T08:29:46.388Z,235
2017-07-19T08:30:12.000Z,240
2017-07-19T08:30:37.475Z,240
2017-07-19T08:31:02.952Z,245
2017-07-19T08:31:28.442Z,245
2017-07-19T08:31:53.893Z,245
2017-07-19T08:32:19.380Z,250
2017-07-19T08:32:44.825Z,250
2017-07-19T08:33:10.317Z,250
2017-07-19T08:33:35.778Z,250
2017-07-19T08:34:01.229Z,245
2017-07-19T08:34:26.700Z,245
2017-07-19T08:34:52.159Z,245
2017-07-19T08:35:17.618Z,250
2017-07-19T08:35:43.081Z,250
2017-07-19T08:36:08.547Z,250
2017-07-19T08:36:34.023Z,250
2017-07-19T08:36:59.477Z,250
2017-07-19T08:37:24.957Z,250
2017-07-19T08:37:50.438Z,255
2017-07-19T08:38:15.919Z,240
2017-07-19T08:38:41.400Z,240
2017-07-19T08:39:06.881Z,235
2017-07-19T08:39:32.363Z,240
2017-07-19T08:39:57.849Z,235
2017-07-19T08:40:23.333Z,235
2017-07-19T08:40:48.845Z,235
2017-07-19T08:41:14.331Z,230
2017-07-19T08:41:39.810Z,225
2017-07-19T08:42:05.286Z,220
2017-07-19T08:42:30.783Z,220
2017-07-19T08:42:56.263Z,220
2017-07-19T08:43:21.761Z,215
2017-07-19T08:43:47.255Z,210
2017-07-19T08:44:12.750Z,215
2017-07-19T08:44:38.230Z,210
2017-07-19T08:45:03.696Z,210
2017-07-19T08:45:29.184Z,205
2017-07-19T08:45:54.664Z,200
2017-07-19T08:46:20.136Z,200
2017-07-19T08:46:45.626Z,195
2017-07-19T08:47:11.109Z,195
2017-07-19T08:47:36.584Z,195
2017-07-19T08:48:02.037Z,195
2017-07-19T08:48:27.514Z,195
2017-07-19T08:48:52.991Z,190
2017-07-19T08:49:18.484Z,190
2017-07-19T08:49:43.972Z,195
2017-07-19T08:50:09.410Z,195
2017-07-19T08:50:34.899Z,195
2017-07-19T08:51:00.377Z,195
2017-07-19T08:51:25.854Z,195
2017-07-19T08:51:51.329Z,200
2017-07-19T08:52:16.821Z,195
2017-07-19T08:52:42.280Z,195
2017-07-19T08:53:07.754Z,195
2017-07-19T08:53:33.221Z,195
2017-07-19T08:53:58.697Z,200
2017-07-19T08:54:24.180Z,200
2017-07-19T08:54:49.626Z,200
2017-07-19T08:55:15.092Z,210
2017-07-19T08:55:40.538Z,210
2017-07-19T08:56:06.016Z,210
2017-07-19T08:56:31.484Z,210
2017-07-19T08:56:56.955Z,210
2017-07-19T08:57:22.429Z,205
2017-07-19T08:57:47.901Z,205
2017-07-19T08:58:13.487Z,210
2017-07-19T08:58:38.973Z,205
2017-07-19T08:59:04.456Z,205
2017-07-19T08:59:29.923Z,200
2017-07-19T08:59:55.411Z,200
2017-07-19T09:00:20.875Z,195
2017-07-19T09:00:46.343Z,195
2017-07-19T09:01:11.827Z,195
2017-07-19T09:01:37.308Z,195
2017-07-19T09:02:02.780Z,190
2017-07-19T09:02:28.254Z,185
2017-07-19T09:02:53.726Z,185
2017-07-19T09:03:19.236Z,180
2017-07-19T09:03:44.712Z,185
2017-07-19T09:04:10.201Z,180
2017-07-19T09:04:35.657Z,180
2017-07-19T09:05:01.104Z,185
2017-07-19T09:05:26.602Z,195
2017-07-19T09:05:52.078Z,195
2017-07-19T09:06:17.550Z,195
2017-07-19T09:06:42.997Z,195
2017-07-19T09:07:08.429Z,200
2017-07-19T09:07:33.892Z,200
2017-07-19T09:07:59.375Z,205
2017-07-19T09:08:24.880Z,210
2017-07-19T09:08:50.358Z,210
2017-07-19T09:09:15.818Z,215
2017-07-19T09:09:41.294Z,220
2017-07-19T09:10:06.826Z,220
2017-07-19T09:10:32.300Z,225
2017-07-19T09:10:57.798Z,230
2017-07-19T09:11:23.282Z,220
2017-07-19T09:11:48.789Z,215
2017-07-19T09:12:14.262Z,215
2017-07-19T09:12:39.739Z,215
2017-07-19T09:13:05.223Z,210
2017-07-19T09:13:30.704Z,210
2017-07-19T09:13:56.180Z,210
2017-07-19T09:14:21.689Z,210
2017-07-19T09:14:47.163Z,205
2017-07-19T09:15:12.637Z,205
2017-07-19T09:15:38.150Z,205
2017-07-19T09:16:03.632Z,200
2017-07-19T09:16:29.119Z,195
2017-07-19T09:16:54.575Z,195
2017-07-19T09:17:20.057Z,195
2017-07-19T09:17:45.527Z,195
2017-07-19T09:18:11.000Z,185
2017-07-19T09:18:36.460Z,190
2017-07-19T09:19:01.945Z,190
2017-07-19T09:19:27.438Z,190
2017-07-19T09:19:52.919Z,190
2017-07-19T09:20:18.413Z,185
2017-07-19T09:20:43.895Z,180
2017-07-19T09:21:09.388Z,180
2017-07-19T09:21:34.887Z,170
2017-07-19T09:22:00.362Z,175
2017-07-19T09:22:25.834Z,170
2017-07-19T09:22:51.321Z,180
2017-07-19T09:23:16.798Z,180
2017-07-19T09:23:42.238Z,180
2017-07-19T09:24:07.701Z,185
2017-07-19T09:24:33.188Z,180
2017-07-19T09:24:58.651Z,185
2017-07-19T09:25:24.091Z,185
2017-07-19T09:25:49.561Z,185
2017-07-19T09:26:15.046Z,190
2017-07-19T09:26:40.492Z,190
2017-07-19T09:27:05.954Z,195
2017-07-19T09:27:31.439Z,195
2017-07-19T09:27:56.898Z,195
2017-07-19T09:28:22.374Z,195
2017-07-19T09:28:47.848Z,205
2017-07-19T09:29:13.344Z,205
2017-07-19T09:29:38.796Z,210
2017-07-19T09:30:04.306Z,210
2017-07-19T09:30:29.809Z,215
2017-07-19T09:30:55.337Z,215
2017-07-19T09:31:20.843Z,215
2017-07-19T09:31:46.296Z,220
2017-07-19T09:32:11.785Z,225
2017-07-19T09:32:37.303Z,225
2017-07-19T09:33:02.789Z,230
2017-07-19T09:33:28.249Z,230
2017-07-19T09:33:53.721Z,230
2017-07-19T09:34:19.216Z,235
2017-07-19T09:34:44.680Z,235
2017-07-19T09:35:10.137Z,235
2017-07-19T09:35:35.609Z,235
2017-07-19T09:36:01.107Z,240
2017-07-19T09:36:26.579Z,240
2017-07-19T09:36:52.046Z,240
2017-07-19T09:37:17.541Z,245
2017-07-19T09:37:43.049Z,245
2017-07-19T09:38:08.552Z,240
2017-07-19T09:38:34.030Z,240
2017-07-19T09:38:59.552Z,240
2017-07-19T09:39:24.988Z,240
2017-07-19T09:39:50.452Z,235
2017-07-19T09:40:15.980Z,235
2017-07-19T09:40:41.488Z,235
2017-07-19T09:41:06.979Z,230
2017-07-19T09:41:32.432Z,225
2017-07-19T09:41:57.875Z,225
2017-07-19T09:42:23.347Z,215
2017-07-19T09:42:48.824Z,210
2017-07-19T09:43:14.258Z,205
2017-07-19T09:43:39.723Z,200
2017-07-19T09:44:05.205Z,195
2017-07-19T09:44:30.669Z,200
2017-07-19T09:44:56.140Z,200
2017-07-19T09:45:21.632Z,200
2017-07-19T09:45:47.120Z,195
2017-07-19T09:46:12.622Z,200
2017-07-19T09:46:38.099Z,200
2017-07-19T09:47:03.599Z,205
2017-07-19T09:47:29.086Z,205
2017-07-19T09:47:54.642Z,210
2017-07-19T09:48:20.120Z,210
2017-07-19T09:48:45.668Z,205
2017-07-19T09:49:11.163Z,205
2017-07-19T09:49:36.686Z,205
2017-07-19T09:50:02.192Z,205
2017-07-19T09:50:27.637Z,205
2017-07-19T09:50:53.138Z,200
2017-07-19T09:51:18.619Z,195
2017-07-19T09:51:44.098Z,200
2017-07-19T09:52:09.584Z,205
2017-07-19T09:52:35.094Z,205
2017-07-19T09:53:00.552Z,210
2017-07-19T09:53:26.108Z,210
2017-07-19T09:53:51.564Z,210
2017-07-19T09:54:17.037Z,205
2017-07-19T09:54:42.504Z,205
2017-07-19T09:55:07.989Z,205
2017-07-19T09:55:33.474Z,200
2017-07-19T09:55:58.946Z,200
2017-07-19T09:56:24.414Z,205
2017-07-19T09:56:49.919Z,205
2017-07-19T09:57:15.400Z,205
2017-07-19T09:57:40.872Z,205
2017-07-19T09:58:06.384Z,205
2017-07-19T09:58:31.850Z,205
2017-07-19T09:58:57.349Z,205
2017-07-19T09:59:22.832Z,200
2017-07-19T09:59:48.331Z,195
2017-07-19T10:00:13.799Z,195
2017-07-19T10:00:39.298Z,195
2017-07-19T10:01:04.779Z,195
2017-07-19T10:01:30.248Z,190
2017-07-19T10:01:55.747Z,190
2017-07-19T10:02:21.227Z,190
2017-07-19T10:02:46.715Z,190
2017-07-19T10:03:12.213Z,190
2017-07-19T10:03:37.719Z,185
2017-07-19T10:04:03.155Z,185
2017-07-19T10:04:28.625Z,185
2017-07-19T10:04:54.141Z,185
2017-07-19T10:05:19.617Z,180
2017-07-19T10:05:45.097Z,180
2017-07-19T10:06:10.609Z,180
2017-07-19T10:06:36.086Z,180
2017-07-19T10:07:01.569Z,180
2017-07-19T10:07:27.114Z,180
2017-07-19T10:07:52.610Z,180
2017-07-19T10:08:18.161Z,175
2017-07-19T10:08:43.591Z,175
2017-07-19T10:09:09.075Z,175
2017-07-19T10:09:34.524Z,175
2017-07-19T10:10:00.036Z,180
2017-07-19T10:10:25.507Z,175
2017-07-19T10:10:50.967Z,175
2017-07-19T10:11:16.437Z,170
2017-07-19T10:11:41.894Z,170
2017-07-19T10:12:07.364Z,170
2017-07-19T10:12:32.817Z,170
2017-07-19T10:12:58.269Z,170
2017-07-19T10:13:23.774Z,170
2017-07-19T10:13:49.231Z,170
2017-07-19T10:14:14.713Z,170
2017-07-19T10:14:40.257Z,170
2017-07-19T10:15:05.764Z,170
2017-07-19T10:15:31.242Z,170
2017-07-19T10:15:56.751Z,170
2017-07-19T10:16:22.230Z,165
2017-07-19T10:16:47.700Z,165
2017-07-19T10:17:13.204Z,165
2017-07-19T10:17:38.702Z,165
2017-07-19T10:18:04.159Z,165
2017-07-19T10:18:29.618Z,165
2017-07-19T10:18:55.099Z,165
2017-07-19T10:19:20.568Z,165
2017-07-19T10:19:46.046Z,165
2017-07-19T10:20:11.506Z,165
2017-07-19T10:20:37.002Z,165
2017-07-19T10:21:02.485Z,165
2017-07-19T10:21:27.950Z,160
2017-07-19T10:21:53.438Z,160
2017-07-19T10:22:18.922Z,160
2017-07-19T10:22:44.397Z,160
2017-07-19T10:23:09.885Z,160
2017-07-19T10:23:35.356Z,160
2017-07-19T10:24:00.916Z,160
2017-07-19T10:24:26.419Z,160
2017-07-19T10:24:51.874Z,155
2017-07-19T10:25:17.328Z,155
2017-07-19T10:25:42.811Z,155
2017-07-19T10:26:08.301Z,155
2017-07-19T10:26:33.772Z,155
2017-07-19T10:26:59.274Z,155
2017-07-19T10:27:24.753Z,150
2017-07-19T10:27:50.246Z,150
2017-07-19T10:28:15.722Z,150
2017-07-19T10:28:41.193Z,150
2017-07-19T10:29:06.679Z,150
2017-07-19T10:29:32.172Z,150
2017-07-19T10:29:57.654Z,150
2017-07-19T10:30:23.136Z,150
2017-07-19T10:30:48.598Z,150
2017-07-19T10:31:14.069Z,150
2017-07-19T10:31:39.562Z,150
2017-07-19T10:32:05.032Z,150
2017-07-19T10:32:30.538Z,150
2017-07-19T10:32:56.007Z,150
2017-07-19T10:33:21.514Z,150
2017-07-19T10:33:46.990Z,150
2017-07-19T10:34:12.470Z,145
2017-07-19T10:34:37.951Z,145
2017-07-19T10:35:03.431Z,145
2017-07-19T10:35:28.916Z,145
2017-07-19T10:35:54.410Z,145
2017-07-19T10:36:19.897Z,145
2017-07-19T10:36:45.375Z,145
2017-07-19T10:37:10.828Z,140
2017-07-19T10:37:36.334Z,140
2017-07-19T10:38:01.800Z,140
2017-07-19T10:38:27.293Z,140
2017-07-19T10:38:52.751Z,140
2017-07-19T10:39:18.221Z,140
2017-07-19T10:39:43.712Z,140
2017-07-19T10:40:09.191Z,140
2017-07-19T10:40:34.677Z,140
2017-07-19T10:41:00.159Z,135
2017-07-19T10:41:25.645Z,135
2017-07-19T10:41:51.116Z,135
2017-07-19T10:42:16.577Z,135
2017-07-19T10:42:42.053Z,135
2017-07-19T10:43:07.534Z,135
2017-07-19T10:43:32.995Z,135
2017-07-19T10:43:58.492Z,135
2017-07-19T10:44:23.972Z,135
2017-07-19T10:44:49.434Z,135
2017-07-19T10:45:14.909Z,135
2017-07-19T10:45:40.401Z,135
2017-07-19T10:46:49.120Z,135
2017-07-19T10:47:14.615Z,135
2017-07-19T10:47:40.079Z,135
2017-07-19T10:48:05.562Z,135
2017-07-19T10:48:31.038Z,135
2017-07-19T10:48:56.512Z,135
2017-07-19T10:49:21.993Z,135
2017-07-19T10:49:47.473Z,135
2017-07-19T10:50:12.977Z,130
2017-07-19T10:50:38.448Z,130
2017-07-19T10:51:03.921Z,130
2017-07-19T10:51:29.413Z,130
2017-07-19T10:51:54.869Z,130
2017-07-19T10:52:20.335Z,130
2017-07-19T10:52:45.829Z,130
2017-07-19T10:53:11.309Z,130
2017-07-19T10:53:36.815Z,130
2017-07-19T10:54:02.290Z,130
2017-07-19T10:54:27.780Z,130
2017-07-19T10:54:53.263Z,130
2017-07-19T10:55:18.756Z,130
2017-07-19T10:55:44.238Z,130
2017-07-19T10:56:09.710Z,130
2017-07-19T10:56:35.204Z,130
2017-07-19T10:57:00.681Z,130
2017-07-19T10:57:26.153Z,130
2017-07-19T10:57:51.621Z,130
2017-07-19T10:58:17.100Z,130
2017-07-19T10:58:42.538Z,130
2017-07-19T10:59:08.027Z,130
2017-07-19T10:59:33.464Z,130
2017-07-19T10:59:58.946Z,130
2017-07-19T11:00:24.444Z,130
2017-07-19T11:00:49.916Z,130
2017-07-19T11:01:15.412Z,130
2017-07-19T11:01:40.901Z,130
2017-07-19T11:02:06.360Z,130
2017-07-19T11:02:31.849Z,130
2017-07-19T11:02:57.321Z,130
2017-07-19T11:03:22.819Z,130
2017-07-19T11:03:48.310Z,130
2017-07-19T11:04:13.770Z,130
2017-07-19T11:04:39.274Z,130
2017-07-19T11:05:04.754Z,130
2017-07-19T11:05:30.233Z,130
2017-07-19T11:05:55.713Z,130
2017-07-19T11:06:21.198Z,130
2017-07-19T11:06:46.639Z,130
2017-07-19T11:07:12.177Z,130
2017-07-19T11:07:37.671Z,130
2017-07-19T11:08:03.192Z,130
2017-07-19T11:08:28.665Z,130
2017-07-19T11:08:54.134Z,130
2017-07-19T11:09:19.649Z,130
2017-07-19T11:09:45.159Z,125
2017-07-19T11:10:10.627Z,125
2017-07-19T11:10:36.107Z,125
2017-07-19T11:11:01.572Z,125
2017-07-19T11:11:27.061Z,125
2017-07-19T11:11:52.554Z,125
2017-07-19T11:12:18.028Z,125
2017-07-19T11:12:43.517Z,125
2017-07-19T11:13:08.992Z,125
2017-07-19T11:13:34.474Z,125
2017-07-19T11:13:59.936Z,125
2017-07-19T11:14:25.421Z,125
2017-07-19T11:14:50.903Z,125
2017-07-19T11:15:16.381Z,125
2017-07-19T11:15:41.857Z,125
2017-07-19T11:16:07.341Z,130
2017-07-19T11:16:32.872Z,125
2017-07-19T11:16:58.343Z,125
2017-07-19T11:17:23.856Z,125
2017-07-19T11:17:49.328Z,125
2017-07-19T11:18:14.816Z,125
2017-07-19T11:18:40.271Z,125
2017-07-19T11:19:05.762Z,125
2017-07-19T11:19:31.234Z,125
2017-07-19T11:19:56.709Z,125
2017-07-19T11:20:22.221Z,125
2017-07-19T11:20:47.671Z,125
2017-07-19T11:21:13.169Z,125
2017-07-19T11:21:38.653Z,125
2017-07-19T11:22:04.139Z,125
2017-07-19T11:22:29.629Z,125
2017-07-19T11:22:55.109Z,125
2017-07-19T11:23:20.584Z,125
2017-07-19T11:23:46.070Z,125